Latest Coastal Weather Observations for Warruwi

IDD60701

Issued at 9:41 am CST Sunday 11 December 2016 (issued every 10 minutes, with the page automatically refreshed every 10 minutes)

About coastal observations | Map of coastal stations | Coastal observations for NT | Marine services | Other Formats
Station Details ID: 014401 Name: WARRUWI AIRPORT Lat: -11.65 Lon: 133.38 Height: 19.2 m
Data from the previous 72 hours. | See also: Recent months at Warruwi
Date/Time
CST
Temp
°C
Wind Pressure Rain since
9am
mm
Weather Cloud Vis
km
Sea
Height
m
Swell
Dir  Spd
kts
Gust
kts
hPa Trend Height
m
Period
s
Dir
11/09:30am 32.7 ENE 4 7 1010.2 - 0.0 - - - - - - -
11/09:00am 31.6 NE 2 5 1010.2 - 0.0 - - - - - - -
11/08:30am 31.6 NNE 3 6 1009.8 - 0.0 - - - - - - -
11/08:00am 30.6 N 2 3 1009.6 - 0.0 - - - - - - -
11/07:30am 30.4 NNE 2 4 1009.2 - 0.0 - - - - - - -
11/07:00am 29.2 N 1 1 1008.8 - 0.0 - - - - - - -
11/06:30am 28.3 CALM 0 0 1008.2 - 0.0 - - - - - - -
11/06:00am 28.2 CALM 0 0 1007.9 - 0.0 - - - - - - -
11/05:30am 28.0 NNE 1 2 1007.6 - 0.0 - - - - - - -
11/05:00am 28.2 NNE 1 1 1007.4 - 0.0 - - - - - - -
11/04:30am 28.4 NNE 1 2 1007.2 - 0.0 - - - - - - -
11/04:00am 29.0 NNE 2 5 1007.0 - 0.0 - - - - - - -
11/03:30am 28.7 NE 1 2 1007.0 - 0.0 - - - - - - -
11/03:00am 28.8 NE 2 3 1007.0 - 0.0 - - - - - - -
11/02:30am 29.2 NE 1 3 1007.1 - 0.0 - - - - - - -
11/02:00am 29.4 NNE 2 4 1007.2 - 0.0 - - - - - - -
11/01:30am 29.8 NE 2 5 1007.6 - 0.0 - - - - - - -
11/01:00am 29.9 ENE 4 6 1007.6 - 0.0 - - - - - - -
11/12:30am 29.9 ENE 3 5 1007.8 - 0.0 - - - - - - -
11/12:00am 29.8 ENE 3 7 1008.1 - 0.0 - - - - - - -
 
Date/Time
CST
Temp
°C
Wind Pressure Rain since
9am
mm
Weather Cloud Vis
km
Sea
Height
m
Swell
Dir  Spd
kts
Gust
kts
hPa Trend Height
m
Period
s
Dir
10/11:30pm 29.8 NE 2 4 1008.4 - 0.0 - - - - - - -
10/11:00pm 29.9 NNE 3 4 1008.5 - 0.0 - - - - - - -
10/10:30pm 29.8 NNE 1 2 1008.6 - 0.0 - - - - - - -
10/10:00pm 29.8 N 1 2 1008.4 - 0.0 - - - - - - -
10/09:30pm 30.0 NNE 2 4 1008.3 - 0.0 - - - - - - -
10/09:00pm 30.1 NNE 2 4 1008.1 - 0.0 - - - - - - -
10/08:30pm 30.3 NE 1 2 1007.9 - 0.0 - - - - - - -
10/08:00pm 30.4 NE 2 3 1008.0 - 0.0 - - - - - - -
10/07:30pm 30.5 NNE 2 3 1007.9 - 0.0 - - - - - - -
10/07:00pm 30.7 NNE 3 7 1007.4 - 0.0 - - - - - - -
10/06:30pm 30.9 NNE 5 9 1006.9 - 0.0 - - - - - - -
10/06:00pm 31.3 NNE 6 9 1006.5 - 0.0 - - - - - - -
10/05:30pm 32.0 NNE 7 12 1006.0 - 0.0 - - - - - - -
10/05:00pm 32.8 NNE 7 13 1006.4 - 0.0 - - - - - - -
10/04:30pm 32.7 NNE 7 11 1006.7 - 0.0 - - - - - - -
10/04:00pm 33.3 NNE 8 11 1006.8 - 0.0 - - - - - - -
10/03:30pm 33.5 NNE 7 12 1006.7 - 0.0 - - - - - - -
10/03:00pm 33.9 NE 6 11 1007.0 - 0.0 - - - - - - -
10/02:30pm 33.8 NE 7 11 1007.5 - 0.0 - - - - - - -
10/02:00pm 33.6 ENE 6 10 1007.8 - 0.0 - - - - - - -
10/01:30pm 33.8 E 6 8 1008.2 - 0.0 - - - - - - -
10/01:00pm 33.8 ESE 5 8 1008.8 - 0.0 - - - - - - -
10/12:30pm 33.1 E 6 7 1009.0 - 0.0 - - - - - - -
10/12:00pm 32.9 SSE 4 8 1009.2 - 0.0 - - - - - - -
10/11:30am 31.7 WNW 5 7 1009.1 - 0.0 - - - - - - -
10/11:00am 32.5 NNW 3 5 1009.2 - 0.0 - - - - - - -
10/10:30am 32.4 NW 4 6 1009.7 - 0.0 - - - - - - -
10/10:00am 32.2 N 2 6 1009.9 - 0.0 - - - - - - -
10/09:30am 31.6 ENE 2 6 1010.0 - 0.0 - - - - - - -
10/09:00am 31.1 E 4 7 1010.2 - 0.0 - - - - - - -
10/08:30am 30.4 SE 7 9 1010.4 - 0.0 - - - - - - -
10/08:00am 30.4 SE 6 10 1010.2 - 0.0 - - - - - - -
10/07:30am 29.6 SSE 4 6 1009.8 - 0.0 - - - - - - -
10/07:00am 29.1 E 1 4 1009.4 - 0.0 - - - - - - -
10/06:30am 27.4 CALM 0 1 1008.8 - 0.0 - - - - - - -
10/06:00am 27.4 NNE 1 2 1008.4 - 0.0 - - - - - - -
10/05:30am 28.4 ENE 2 4 1008.1 - 0.0 - - - - - - -
10/05:00am 28.9 NE 2 4 1007.8 - 0.0 - - - - - - -
10/04:30am 29.0 ENE 3 6 1007.7 - 0.0 - - - - - - -
10/04:00am 29.0 ENE 3 5 1007.7 - 0.0 - - - - - - -
10/03:30am 28.9 NE 3 4 1007.6 - 0.0 - - - - - - -
10/03:00am 28.8 ENE 3 5 1007.7 - 0.0 - - - - - - -
10/02:30am 28.8 NE 2 3 1007.6 - 0.0 - - - - - - -
10/02:00am 29.2 NE 3 6 1007.6 - 0.0 - - - - - - -
10/01:30am 29.1 NE 2 4 1008.0 - 0.0 - - - - - - -
10/01:00am 29.3 NE 3 6 1008.1 - 0.0 - - - - - - -
10/12:30am 29.0 NE 3 5 1008.1 - 0.0 - - - - - - -
10/12:00am 28.9 NE 2 6 1008.4 - 0.0 - - - - - - -
 
Date/Time
CST
Temp
°C
Wind Pressure Rain since
9am
mm
Weather Cloud Vis
km
Sea
Height
m
Swell
Dir  Spd
kts
Gust
kts
hPa Trend Height
m
Period
s
Dir
09/11:30pm 28.8 NNE 2 5 1008.6 - 0.0 - - - - - - -
09/11:00pm 28.8 NNE 2 4 1008.9 - 0.0 - - - - - - -
09/10:30pm 28.9 NE 2 3 1008.8 - 0.0 - - - - - - -
09/10:00pm 29.0 NNE 2 5 1008.8 - 0.0 - - - - - - -
09/09:30pm 29.3 NNE 3 6 1008.7 - 0.0 - - - - - - -
09/09:00pm 29.2 NE 2 3 1008.3 - 0.0 - - - - - - -
09/08:30pm 29.4 NNE 2 5 1008.3 - 0.0 - - - - - - -
09/08:00pm 29.5 NNE 4 6 1008.1 - 0.0 - - - - - - -
09/07:30pm 29.8 NNE 3 6 1008.0 - 0.0 - - - - - - -
09/07:00pm 30.1 NE 5 8 1007.8 - 0.0 - - - - - - -
09/06:30pm 30.6 NE 5 8 1007.4 - 0.0 - - - - - - -
09/06:00pm 31.1 NE 6 9 1007.0 - 0.0 - - - - - - -
09/05:30pm 31.6 NE 5 8 1006.5 - 0.0 - - - - - - -
09/05:00pm 32.5 NE 5 9 1006.4 - 0.0 - - - - - - -
09/04:30pm 32.4 NE 5 9 1006.4 - 0.0 - - - - - - -
09/04:00pm 32.3 ENE 6 10 1006.6 - 0.0 - - - - - - -
09/03:30pm 32.5 E 8 11 1006.9 - 0.0 - - - - - - -
09/03:00pm 32.6 E 9 12 1007.2 - 0.0 - - - - - - -
09/02:30pm 32.5 E 7 11 1007.6 - 0.0 - - - - - - -
09/02:00pm 32.8 E 9 11 1007.7 - 0.0 - - - - - - -
09/01:30pm 33.0 E 8 13 1007.9 - 0.0 - - - - - - -
09/01:00pm 32.5 E 8 12 1007.9 - 0.0 - - - - - - -
09/12:30pm 32.6 E 9 12 1008.2 - 0.0 - - - - - - -
09/12:00pm 32.4 E 7 11 1008.6 - 0.0 - - - - - - -
09/11:30am 32.8 E 8 11 1008.8 - 0.0 - - - - - - -
09/11:00am 32.0 E 8 12 1009.1 - 0.0 - - - - - - -
09/10:30am 31.6 E 8 11 1009.4 - 0.0 - - - - - - -
09/10:00am 31.8 ESE 5 8 1009.5 - 0.0 - - - - - - -
09/09:30am 31.1 ESE 6 9 1009.4 - 0.0 - - - - - - -
09/09:00am 31.2 E 6 8 1009.2 - 0.0 - - - - - - -
09/08:30am 29.8 ENE 2 3 1009.2 - 0.0 - - - - - - -
09/08:00am 29.0 SSE 2 3 1008.8 - 0.0 - - - - - - -
09/07:30am 29.0 SSE 2 3 1008.6 - 0.0 - - - - - - -
09/07:00am 28.4 S 3 3 1008.3 - 0.0 - - - - - - -
09/06:30am 28.0 SSW 2 3 1008.2 - 0.0 - - - - - - -
09/06:00am 27.6 W 1 4 1007.8 - 0.0 - - - - - - -
09/05:30am 27.1 CALM 0 0 1007.4 - 0.0 - - - - - - -
09/05:00am 27.2 CALM 0 0 1007.2 - 0.0 - - - - - - -
09/04:30am 27.6 CALM 0 0 1006.9 - 0.0 - - - - - - -
09/04:00am 27.6 N 2 3 1007.0 - 0.0 - - - - - - -
09/03:30am 27.6 N 1 2 1007.1 - 0.0 - - - - - - -
09/03:00am 27.4 N 1 2 1007.1 - 0.0 - - - - - - -
09/02:30am 27.4 N 1 2 1007.2 - 0.0 - - - - - - -
09/02:00am 27.3 NE 1 2 1007.5 - 0.0 - - - - - - -
09/01:30am 27.2 NE 2 3 1007.7 - 0.0 - - - - - - -
09/01:00am 27.2 CALM 0 0 1007.8 - 0.0 - - - - - - -
09/12:30am 27.9 CALM 0 0 1007.8 - 0.0 - - - - - - -
09/12:00am 28.0 N 1 3 1007.7 - 0.0 - - - - - - -
 
Date/Time
CST
Temp
°C
Wind Pressure Rain since
9am
mm
Weather Cloud Vis
km
Sea
Height
m
Swell
Dir  Spd
kts
Gust
kts
hPa Trend Height
m
Period
s
Dir
08/11:30pm 27.9 NNE 2 4 1007.7 - 0.0 - - - - - - -
08/11:00pm 28.1 NNE 1 3 1007.7 - 0.0 - - - - - - -
08/10:30pm 28.5 N 2 2 1007.6 - 0.0 - - - - - - -
08/10:00pm 28.9 NNE 3 4 1007.5 - 0.0 - - - - - - -
08/09:30pm 28.7 NNE 2 4 1007.2 - 0.0 - - - - - - -
08/09:00pm 28.7 NNE 3 4 1006.8 - 0.0 - - - - - - -
08/08:30pm 29.0 NNE 2 2 1006.5 - 0.0 - - - - - - -
08/08:00pm 29.4 NE 3 5 1006.2 - 0.0 - - - - - - -
08/07:30pm 29.7 NE 5 8 1006.0 - 0.0 - - - - - - -
08/07:00pm 29.9 NE 5 9 1005.8 - 0.0 - - - - - - -
08/06:30pm 30.5 NE 5 8 1005.5 - 0.0 - - - - - - -
08/06:00pm 31.0 NE 6 10 1005.0 - 0.0 - - - - - - -
08/05:30pm 31.7 NE 5 10 1004.9 - 0.0 - - - - - - -
08/05:00pm 31.8 NE 6 12 1004.9 - 0.0 - - - - - - -
08/04:30pm 32.0 NE 6 10 1004.8 - 0.0 - - - - - - -
08/04:00pm 32.3 ENE 6 10 1004.7 - 0.0 - - - - - - -
08/03:30pm 32.5 ENE 7 10 1004.7 - 0.0 - - - - - - -
08/03:00pm 33.2 E 8 11 1004.9 - 0.0 - - - - - - -
08/02:30pm 32.6 E 7 10 1005.1 - 0.0 - - - - - - -
08/02:00pm 32.5 E 7 10 1005.6 - 0.0 - - - - - - -
08/01:30pm 32.5 E 6 10 1006.0 - 0.0 - - - - - - -
08/01:00pm 32.4 E 7 10 1006.5 - 0.0 - - - - - - -
08/12:30pm 32.3 E 7 9 1006.9 - 0.0 - - - - - - -
08/12:00pm 31.9 E 8 11 1007.1 - 0.0 - - - - - - -
08/11:30am 31.5 E 7 9 1007.4 - 0.0 - - - - - - -
08/11:00am 31.3 E 5 7 1007.9 - 0.0 - - - - - - -
08/10:30am 31.0 ESE 6 9 1008.2 - 0.0 - - - - - - -
08/10:00am 30.7 E 5 9 1008.6 - 0.0 - - - - - - -

Other Formats:

Comma delimited format used in spreadsheet applications
http://www.bom.gov.au/fwo/IDD60701/IDD60701.94139.axf

JavaScript Object Notation format (JSON) in row-major order
http://www.bom.gov.au/fwo/IDD60701/IDD60701.94139.json